sensor_id;sensor_type;location;lat;lon;timestamp;temperature;humidity
58849;DHT22;44619;51.022;6.818;2023-03-02T00:01:29;3.60;44.30
58849;DHT22;44619;51.022;6.818;2023-03-02T00:03:55;3.60;44.40
58849;DHT22;44619;51.022;6.818;2023-03-02T00:06:24;3.60;44.40
58849;DHT22;44619;51.022;6.818;2023-03-02T00:08:50;3.50;44.50
58849;DHT22;44619;51.022;6.818;2023-03-02T00:11:16;3.50;44.80
58849;DHT22;44619;51.022;6.818;2023-03-02T00:13:42;3.50;44.60
58849;DHT22;44619;51.022;6.818;2023-03-02T00:16:07;3.50;44.40
58849;DHT22;44619;51.022;6.818;2023-03-02T00:18:33;3.40;44.60
58849;DHT22;44619;51.022;6.818;2023-03-02T00:20:58;3.30;44.70
58849;DHT22;44619;51.022;6.818;2023-03-02T00:23:24;3.50;44.80
58849;DHT22;44619;51.022;6.818;2023-03-02T00:25:49;3.40;44.40
58849;DHT22;44619;51.022;6.818;2023-03-02T00:28:15;3.40;44.50
58849;DHT22;44619;51.022;6.818;2023-03-02T00:30:40;3.30;44.60
58849;DHT22;44619;51.022;6.818;2023-03-02T00:33:06;3.20;44.70
58849;DHT22;44619;51.022;6.818;2023-03-02T00:35:35;3.30;44.70
58849;DHT22;44619;51.022;6.818;2023-03-02T00:38:01;3.20;44.50
58849;DHT22;44619;51.022;6.818;2023-03-02T00:40:26;3.20;44.50
58849;DHT22;44619;51.022;6.818;2023-03-02T00:42:52;3.30;44.50
58849;DHT22;44619;51.022;6.818;2023-03-02T00:45:18;3.10;44.70
58849;DHT22;44619;51.022;6.818;2023-03-02T00:47:43;3.00;44.70
58849;DHT22;44619;51.022;6.818;2023-03-02T00:50:09;2.90;45.10
58849;DHT22;44619;51.022;6.818;2023-03-02T00:52:34;3.00;45.00
58849;DHT22;44619;51.022;6.818;2023-03-02T00:55:01;3.00;44.90
58849;DHT22;44619;51.022;6.818;2023-03-02T00:57:30;2.90;44.80
58849;DHT22;44619;51.022;6.818;2023-03-02T00:59:56;2.80;45.50
58849;DHT22;44619;51.022;6.818;2023-03-02T01:02:21;2.80;44.90
58849;DHT22;44619;51.022;6.818;2023-03-02T01:04:47;2.90;44.60
58849;DHT22;44619;51.022;6.818;2023-03-02T01:07:13;2.80;44.60
58849;DHT22;44619;51.022;6.818;2023-03-02T01:09:39;2.60;44.70
58849;DHT22;44619;51.022;6.818;2023-03-02T01:12:09;2.50;44.80
58849;DHT22;44619;51.022;6.818;2023-03-02T01:14:36;2.50;44.90
58849;DHT22;44619;51.022;6.818;2023-03-02T01:17:02;2.40;45.00
58849;DHT22;44619;51.022;6.818;2023-03-02T01:19:28;2.40;51.10
58849;DHT22;44619;51.022;6.818;2023-03-02T01:21:54;2.30;54.50
58849;DHT22;44619;51.022;6.818;2023-03-02T01:24:19;2.40;54.10
58849;DHT22;44619;51.022;6.818;2023-03-02T01:26:45;2.40;54.10
58849;DHT22;44619;51.022;6.818;2023-03-02T01:29:12;2.30;54.80
58849;DHT22;44619;51.022;6.818;2023-03-02T01:31:37;2.30;55.70
58849;DHT22;44619;51.022;6.818;2023-03-02T01:34:03;2.30;55.90
58849;DHT22;44619;51.022;6.818;2023-03-02T01:36:29;2.20;56.40
58849;DHT22;44619;51.022;6.818;2023-03-02T01:38:54;2.20;57.00
58849;DHT22;44619;51.022;6.818;2023-03-02T01:41:20;2.30;57.70
58849;DHT22;44619;51.022;6.818;2023-03-02T01:43:45;2.20;56.40
58849;DHT22;44619;51.022;6.818;2023-03-02T01:51:24;2.20;56.60
58849;DHT22;44619;51.022;6.818;2023-03-02T01:53:51;2.10;56.60
58849;DHT22;44619;51.022;6.818;2023-03-02T01:56:19;2.10;56.50
58849;DHT22;44619;51.022;6.818;2023-03-02T01:58:46;2.10;57.30
58849;DHT22;44619;51.022;6.818;2023-03-02T02:01:13;2.10;57.50
58849;DHT22;44619;51.022;6.818;2023-03-02T02:03:42;2.10;56.70
58849;DHT22;44619;51.022;6.818;2023-03-02T02:06:17;2.10;56.50
58849;DHT22;44619;51.022;6.818;2023-03-02T02:08:44;2.00;59.20
58849;DHT22;44619;51.022;6.818;2023-03-02T02:11:11;2.00;55.70
58849;DHT22;44619;51.022;6.818;2023-03-02T02:13:36;1.90;55.80
58849;DHT22;44619;51.022;6.818;2023-03-02T02:16:02;1.90;53.60
58849;DHT22;44619;51.022;6.818;2023-03-02T02:18:28;1.90;54.40
58849;DHT22;44619;51.022;6.818;2023-03-02T02:20:54;1.90;53.40
58849;DHT22;44619;51.022;6.818;2023-03-02T02:24:20;1.90;53.80
58849;DHT22;44619;51.022;6.818;2023-03-02T02:26:27;1.80;54.00
58849;DHT22;44619;51.022;6.818;2023-03-02T02:28:59;1.80;54.00
58849;DHT22;44619;51.022;6.818;2023-03-02T02:31:29;1.90;53.10
58849;DHT22;44619;51.022;6.818;2023-03-02T02:33:59;1.70;53.70
58849;DHT22;44619;51.022;6.818;2023-03-02T02:36:29;1.80;53.60
58849;DHT22;44619;51.022;6.818;2023-03-02T02:38:57;1.80;53.50
58849;DHT22;44619;51.022;6.818;2023-03-02T02:41:25;1.90;52.80
58849;DHT22;44619;51.022;6.818;2023-03-02T02:43:52;1.80;52.20
58849;DHT22;44619;51.022;6.818;2023-03-02T02:46:24;1.80;53.10
58849;DHT22;44619;51.022;6.818;2023-03-02T02:48:50;1.80;52.60
58849;DHT22;44619;51.022;6.818;2023-03-02T02:51:17;1.70;52.10
58849;DHT22;44619;51.022;6.818;2023-03-02T02:56:35;1.60;51.80
58849;DHT22;44619;51.022;6.818;2023-03-02T02:59:20;1.70;51.40
58849;DHT22;44619;51.022;6.818;2023-03-02T03:01:49;1.70;49.10
58849;DHT22;44619;51.022;6.818;2023-03-02T03:04:19;1.60;50.00
58849;DHT22;44619;51.022;6.818;2023-03-02T03:06:52;1.60;49.90
58849;DHT22;44619;51.022;6.818;2023-03-02T03:09:18;1.70;49.30
58849;DHT22;44619;51.022;6.818;2023-03-02T03:11:45;1.50;49.60
58849;DHT22;44619;51.022;6.818;2023-03-02T03:14:13;1.50;49.80
58849;DHT22;44619;51.022;6.818;2023-03-02T03:16:41;1.60;49.60
58849;DHT22;44619;51.022;6.818;2023-03-02T03:19:10;1.50;49.40
58849;DHT22;44619;51.022;6.818;2023-03-02T03:21:36;1.50;49.20
58849;DHT22;44619;51.022;6.818;2023-03-02T03:24:02;1.50;49.20
58849;DHT22;44619;51.022;6.818;2023-03-02T03:26:27;1.50;49.10
58849;DHT22;44619;51.022;6.818;2023-03-02T03:28:53;1.40;49.40
58849;DHT22;44619;51.022;6.818;2023-03-02T03:31:23;1.50;49.70
58849;DHT22;44619;51.022;6.818;2023-03-02T03:33:48;1.50;49.30
58849;DHT22;44619;51.022;6.818;2023-03-02T03:36:14;1.40;49.80
58849;DHT22;44619;51.022;6.818;2023-03-02T03:38:40;1.30;49.70
58849;DHT22;44619;51.022;6.818;2023-03-02T03:41:05;1.30;49.60
58849;DHT22;44619;51.022;6.818;2023-03-02T03:43:31;1.40;50.20
58849;DHT22;44619;51.022;6.818;2023-03-02T03:46:03;1.30;49.90
58849;DHT22;44619;51.022;6.818;2023-03-02T03:48:28;1.40;49.90
58849;DHT22;44619;51.022;6.818;2023-03-02T03:50:54;1.20;50.20
58849;DHT22;44619;51.022;6.818;2023-03-02T03:53:19;1.20;50.00
58849;DHT22;44619;51.022;6.818;2023-03-02T03:55:45;1.10;50.40
58849;DHT22;44619;51.022;6.818;2023-03-02T03:58:10;1.10;50.30
58849;DHT22;44619;51.022;6.818;2023-03-02T04:00:36;1.20;50.40
58849;DHT22;44619;51.022;6.818;2023-03-02T04:03:01;1.20;51.20
58849;DHT22;44619;51.022;6.818;2023-03-02T04:05:27;1.10;51.40
58849;DHT22;44619;51.022;6.818;2023-03-02T04:07:52;1.00;51.60
58849;DHT22;44619;51.022;6.818;2023-03-02T04:10:18;1.00;51.90
58849;DHT22;44619;51.022;6.818;2023-03-02T04:12:44;0.90;52.60
58849;DHT22;44619;51.022;6.818;2023-03-02T04:15:12;0.90;52.60
58849;DHT22;44619;51.022;6.818;2023-03-02T04:17:37;0.90;53.50
58849;DHT22;44619;51.022;6.818;2023-03-02T04:20:06;0.90;54.20
58849;DHT22;44619;51.022;6.818;2023-03-02T04:22:33;1.00;54.70
58849;DHT22;44619;51.022;6.818;2023-03-02T04:24:58;0.90;54.50
58849;DHT22;44619;51.022;6.818;2023-03-02T04:27:24;0.80;54.30
58849;DHT22;44619;51.022;6.818;2023-03-02T04:29:49;0.90;54.60
58849;DHT22;44619;51.022;6.818;2023-03-02T04:32:17;0.80;54.80
58849;DHT22;44619;51.022;6.818;2023-03-02T04:34:43;0.90;54.30
58849;DHT22;44619;51.022;6.818;2023-03-02T04:37:08;0.90;54.40
58849;DHT22;44619;51.022;6.818;2023-03-02T04:39:34;0.90;53.50
58849;DHT22;44619;51.022;6.818;2023-03-02T04:42:00;0.80;53.80
58849;DHT22;44619;51.022;6.818;2023-03-02T04:44:25;0.80;53.60
58849;DHT22;44619;51.022;6.818;2023-03-02T04:46:51;0.80;53.50
58849;DHT22;44619;51.022;6.818;2023-03-02T04:49:17;0.80;53.40
58849;DHT22;44619;51.022;6.818;2023-03-02T04:51:43;0.70;53.10
58849;DHT22;44619;51.022;6.818;2023-03-02T04:54:13;0.70;53.20
58849;DHT22;44619;51.022;6.818;2023-03-02T04:56:41;0.70;52.90
58849;DHT22;44619;51.022;6.818;2023-03-02T04:59:07;0.80;53.00
58849;DHT22;44619;51.022;6.818;2023-03-02T05:01:35;0.70;52.30
58849;DHT22;44619;51.022;6.818;2023-03-02T05:04:01;0.70;52.20
58849;DHT22;44619;51.022;6.818;2023-03-02T05:06:26;0.60;53.70
58849;DHT22;44619;51.022;6.818;2023-03-02T05:08:52;0.60;53.10
58849;DHT22;44619;51.022;6.818;2023-03-02T05:11:18;0.60;52.80
58849;DHT22;44619;51.022;6.818;2023-03-02T05:13:55;0.50;53.60
58849;DHT22;44619;51.022;6.818;2023-03-02T05:16:21;0.40;53.10
58849;DHT22;44619;51.022;6.818;2023-03-02T05:18:47;0.50;53.90
58849;DHT22;44619;51.022;6.818;2023-03-02T05:21:13;0.50;53.40
58849;DHT22;44619;51.022;6.818;2023-03-02T05:23:40;0.40;53.40
58849;DHT22;44619;51.022;6.818;2023-03-02T05:26:05;0.40;52.50
58849;DHT22;44619;51.022;6.818;2023-03-02T05:28:31;0.40;53.10
58849;DHT22;44619;51.022;6.818;2023-03-02T05:30:57;0.50;52.90
58849;DHT22;44619;51.022;6.818;2023-03-02T05:33:23;0.50;53.00
58849;DHT22;44619;51.022;6.818;2023-03-02T05:35:48;0.40;53.30
58849;DHT22;44619;51.022;6.818;2023-03-02T05:38:14;0.40;53.90
58849;DHT22;44619;51.022;6.818;2023-03-02T05:40:40;0.30;53.80
58849;DHT22;44619;51.022;6.818;2023-03-02T05:43:07;0.40;53.90
58849;DHT22;44619;51.022;6.818;2023-03-02T05:45:34;0.30;53.70
58849;DHT22;44619;51.022;6.818;2023-03-02T05:48:00;0.30;53.00
58849;DHT22;44619;51.022;6.818;2023-03-02T05:50:25;0.30;53.20
58849;DHT22;44619;51.022;6.818;2023-03-02T05:52:51;0.20;53.80
58849;DHT22;44619;51.022;6.818;2023-03-02T05:55:23;0.30;53.10
58849;DHT22;44619;51.022;6.818;2023-03-02T05:57:49;0.20;53.40
58849;DHT22;44619;51.022;6.818;2023-03-02T06:00:15;0.10;54.00
58849;DHT22;44619;51.022;6.818;2023-03-02T06:02:41;0.10;53.80
58849;DHT22;44619;51.022;6.818;2023-03-02T06:05:07;0.20;53.90
58849;DHT22;44619;51.022;6.818;2023-03-02T06:07:33;0.30;53.40
58849;DHT22;44619;51.022;6.818;2023-03-02T06:09:58;0.10;53.70
58849;DHT22;44619;51.022;6.818;2023-03-02T06:12:30;0.00;54.40
58849;DHT22;44619;51.022;6.818;2023-03-02T06:14:56;0.00;54.20
58849;DHT22;44619;51.022;6.818;2023-03-02T06:17:26;0.10;54.20
58849;DHT22;44619;51.022;6.818;2023-03-02T06:19:51;0.00;53.80
58849;DHT22;44619;51.022;6.818;2023-03-02T06:22:17;0.10;52.90
58849;DHT22;44619;51.022;6.818;2023-03-02T06:24:42;0.00;52.80
58849;DHT22;44619;51.022;6.818;2023-03-02T06:27:08;0.10;52.40
58849;DHT22;44619;51.022;6.818;2023-03-02T06:29:39;0.20;52.30
58849;DHT22;44619;51.022;6.818;2023-03-02T06:32:04;0.10;52.20
58849;DHT22;44619;51.022;6.818;2023-03-02T06:34:30;0.10;52.30
58849;DHT22;44619;51.022;6.818;2023-03-02T06:36:55;0.00;52.90
58849;DHT22;44619;51.022;6.818;2023-03-02T06:39:21;0.10;52.60
58849;DHT22;44619;51.022;6.818;2023-03-02T06:41:47;0.10;52.70
58849;DHT22;44619;51.022;6.818;2023-03-02T06:44:13;0.10;53.10
58849;DHT22;44619;51.022;6.818;2023-03-02T06:46:39;0.10;53.40
58849;DHT22;44619;51.022;6.818;2023-03-02T06:49:06;0.10;53.10
58849;DHT22;44619;51.022;6.818;2023-03-02T06:51:32;0.10;53.30
58849;DHT22;44619;51.022;6.818;2023-03-02T06:54:00;0.10;52.90
58849;DHT22;44619;51.022;6.818;2023-03-02T06:56:26;0.20;53.00
58849;DHT22;44619;51.022;6.818;2023-03-02T06:58:51;0.10;52.80
58849;DHT22;44619;51.022;6.818;2023-03-02T07:01:17;0.20;52.80
58849;DHT22;44619;51.022;6.818;2023-03-02T07:03:43;0.10;52.90
58849;DHT22;44619;51.022;6.818;2023-03-02T07:06:12;0.10;53.40
58849;DHT22;44619;51.022;6.818;2023-03-02T07:08:38;0.10;53.40
58849;DHT22;44619;51.022;6.818;2023-03-02T07:11:04;0.20;53.70
58849;DHT22;44619;51.022;6.818;2023-03-02T07:13:30;0.10;53.60
58849;DHT22;44619;51.022;6.818;2023-03-02T07:15:56;0.30;53.40
58849;DHT22;44619;51.022;6.818;2023-03-02T07:18:21;0.30;53.30
58849;DHT22;44619;51.022;6.818;2023-03-02T07:20:47;0.40;53.40
58849;DHT22;44619;51.022;6.818;2023-03-02T07:23:12;0.30;53.40
58849;DHT22;44619;51.022;6.818;2023-03-02T07:25:38;0.40;53.10
58849;DHT22;44619;51.022;6.818;2023-03-02T07:28:03;0.40;53.20
58849;DHT22;44619;51.022;6.818;2023-03-02T07:30:29;0.40;53.20
58849;DHT22;44619;51.022;6.818;2023-03-02T07:32:55;0.50;52.70
58849;DHT22;44619;51.022;6.818;2023-03-02T07:35:20;0.50;52.10
58849;DHT22;44619;51.022;6.818;2023-03-02T07:37:46;0.40;53.00
58849;DHT22;44619;51.022;6.818;2023-03-02T07:40:14;0.50;52.80
58849;DHT22;44619;51.022;6.818;2023-03-02T07:42:40;0.50;52.90
58849;DHT22;44619;51.022;6.818;2023-03-02T07:45:05;0.40;52.40
58849;DHT22;44619;51.022;6.818;2023-03-02T07:47:32;0.60;52.50
58849;DHT22;44619;51.022;6.818;2023-03-02T07:49:58;0.50;52.40
58849;DHT22;44619;51.022;6.818;2023-03-02T07:52:23;0.50;52.70
58849;DHT22;44619;51.022;6.818;2023-03-02T07:54:49;0.60;52.90
58849;DHT22;44619;51.022;6.818;2023-03-02T07:57:17;0.50;52.90
58849;DHT22;44619;51.022;6.818;2023-03-02T07:59:43;0.60;52.90
58849;DHT22;44619;51.022;6.818;2023-03-02T08:02:13;0.70;52.90
58849;DHT22;44619;51.022;6.818;2023-03-02T08:04:39;0.80;53.00
58849;DHT22;44619;51.022;6.818;2023-03-02T08:07:04;0.80;52.80
58849;DHT22;44619;51.022;6.818;2023-03-02T08:09:30;0.90;53.00
58849;DHT22;44619;51.022;6.818;2023-03-02T08:11:55;1.00;53.10
58849;DHT22;44619;51.022;6.818;2023-03-02T08:14:21;1.00;53.20
58849;DHT22;44619;51.022;6.818;2023-03-02T08:16:47;1.10;53.10
58849;DHT22;44619;51.022;6.818;2023-03-02T08:19:12;1.10;53.30
58849;DHT22;44619;51.022;6.818;2023-03-02T08:21:38;1.10;53.20
58849;DHT22;44619;51.022;6.818;2023-03-02T08:24:04;1.20;53.60
58849;DHT22;44619;51.022;6.818;2023-03-02T08:26:29;1.20;52.80
58849;DHT22;44619;51.022;6.818;2023-03-02T08:28:55;1.30;53.00
58849;DHT22;44619;51.022;6.818;2023-03-02T08:31:21;1.30;52.90
58849;DHT22;44619;51.022;6.818;2023-03-02T08:33:46;1.30;52.80
58849;DHT22;44619;51.022;6.818;2023-03-02T08:36:16;1.40;52.90
58849;DHT22;44619;51.022;6.818;2023-03-02T08:38:42;1.40;52.20
58849;DHT22;44619;51.022;6.818;2023-03-02T08:41:15;1.50;52.10
58849;DHT22;44619;51.022;6.818;2023-03-02T08:43:41;1.50;52.00
58849;DHT22;44619;51.022;6.818;2023-03-02T08:46:06;1.50;51.90
58849;DHT22;44619;51.022;6.818;2023-03-02T08:48:32;1.60;52.00
58849;DHT22;44619;51.022;6.818;2023-03-02T08:50:59;1.70;52.60
58849;DHT22;44619;51.022;6.818;2023-03-02T08:53:25;1.70;52.00
58849;DHT22;44619;51.022;6.818;2023-03-02T08:55:51;1.70;51.90
58849;DHT22;44619;51.022;6.818;2023-03-02T08:58:17;1.80;52.00
58849;DHT22;44619;51.022;6.818;2023-03-02T09:00:43;1.80;52.10
58849;DHT22;44619;51.022;6.818;2023-03-02T09:03:09;1.90;51.90
58849;DHT22;44619;51.022;6.818;2023-03-02T09:05:39;2.00;52.00
58849;DHT22;44619;51.022;6.818;2023-03-02T09:08:05;2.00;52.10
58849;DHT22;44619;51.022;6.818;2023-03-02T09:10:31;2.00;51.90
58849;DHT22;44619;51.022;6.818;2023-03-02T09:12:58;2.10;51.70
58849;DHT22;44619;51.022;6.818;2023-03-02T09:15:23;2.20;51.60
58849;DHT22;44619;51.022;6.818;2023-03-02T09:17:49;2.20;51.40
58849;DHT22;44619;51.022;6.818;2023-03-02T09:20:15;2.20;51.30
58849;DHT22;44619;51.022;6.818;2023-03-02T09:22:41;2.30;51.20
58849;DHT22;44619;51.022;6.818;2023-03-02T09:25:13;2.30;51.10
58849;DHT22;44619;51.022;6.818;2023-03-02T09:27:40;2.40;51.40
58849;DHT22;44619;51.022;6.818;2023-03-02T09:30:07;2.40;51.20
58849;DHT22;44619;51.022;6.818;2023-03-02T09:32:34;2.50;51.00
58849;DHT22;44619;51.022;6.818;2023-03-02T09:35:01;2.50;51.10
58849;DHT22;44619;51.022;6.818;2023-03-02T09:37:27;2.50;51.20
58849;DHT22;44619;51.022;6.818;2023-03-02T09:39:53;2.70;51.40
58849;DHT22;44619;51.022;6.818;2023-03-02T09:47:33;2.80;51.50
58849;DHT22;44619;51.022;6.818;2023-03-02T09:52:35;2.90;50.40
58849;DHT22;44619;51.022;6.818;2023-03-02T09:55:12;2.90;48.40
58849;DHT22;44619;51.022;6.818;2023-03-02T09:57:39;2.90;47.60
58849;DHT22;44619;51.022;6.818;2023-03-02T10:00:05;3.00;47.60
58849;DHT22;44619;51.022;6.818;2023-03-02T10:05:07;3.10;47.40
58849;DHT22;44619;51.022;6.818;2023-03-02T10:07:37;3.20;47.50
58849;DHT22;44619;51.022;6.818;2023-03-02T10:10:21;3.30;47.60
58849;DHT22;44619;51.022;6.818;2023-03-02T10:15:35;3.40;47.60
58849;DHT22;44619;51.022;6.818;2023-03-02T10:18:11;3.40;47.70
58849;DHT22;44619;51.022;6.818;2023-03-02T10:23:20;3.50;47.90
58849;DHT22;44619;51.022;6.818;2023-03-02T10:25:52;3.60;47.90
58849;DHT22;44619;51.022;6.818;2023-03-02T10:28:20;3.60;47.90
58849;DHT22;44619;51.022;6.818;2023-03-02T10:30:48;3.70;48.00
58849;DHT22;44619;51.022;6.818;2023-03-02T10:33:17;3.70;48.00
58849;DHT22;44619;51.022;6.818;2023-03-02T10:35:44;3.80;47.90
58849;DHT22;44619;51.022;6.818;2023-03-02T10:38:11;3.80;48.20
58849;DHT22;44619;51.022;6.818;2023-03-02T10:43:50;3.90;48.20
58849;DHT22;44619;51.022;6.818;2023-03-02T10:46:16;3.90;48.20
58849;DHT22;44619;51.022;6.818;2023-03-02T10:48:51;4.00;47.90
58849;DHT22;44619;51.022;6.818;2023-03-02T10:53:46;4.10;47.90
58849;DHT22;44619;51.022;6.818;2023-03-02T10:56:18;4.20;47.90
58849;DHT22;44619;51.022;6.818;2023-03-02T10:58:45;4.20;48.10
58849;DHT22;44619;51.022;6.818;2023-03-02T11:01:17;4.30;48.10
58849;DHT22;44619;51.022;6.818;2023-03-02T11:03:56;4.30;47.90
58849;DHT22;44619;51.022;6.818;2023-03-02T11:06:22;4.40;47.90
58849;DHT22;44619;51.022;6.818;2023-03-02T11:09:00;4.40;47.90
58849;DHT22;44619;51.022;6.818;2023-03-02T11:11:26;4.50;49.10
58849;DHT22;44619;51.022;6.818;2023-03-02T11:13:51;4.60;50.00
58849;DHT22;44619;51.022;6.818;2023-03-02T11:21:21;4.90;51.00
58849;DHT22;44619;51.022;6.818;2023-03-02T11:26:27;5.10;49.90
58849;DHT22;44619;51.022;6.818;2023-03-02T11:29:03;5.20;49.50
58849;DHT22;44619;51.022;6.818;2023-03-02T11:39:22;5.70;47.30
58849;DHT22;44619;51.022;6.818;2023-03-02T11:41:49;5.80;47.50
58849;DHT22;44619;51.022;6.818;2023-03-02T11:44:17;6.00;47.60
58849;DHT22;44619;51.022;6.818;2023-03-02T11:46:52;6.20;47.80
58849;DHT22;44619;51.022;6.818;2023-03-02T11:49:21;6.40;47.70
58849;DHT22;44619;51.022;6.818;2023-03-02T11:51:55;6.70;47.60
58849;DHT22;44619;51.022;6.818;2023-03-02T11:57:01;7.20;47.50
58849;DHT22;44619;51.022;6.818;2023-03-02T11:59:26;7.50;47.60
58849;DHT22;44619;51.022;6.818;2023-03-02T12:01:52;7.70;47.50
58849;DHT22;44619;51.022;6.818;2023-03-02T12:04:37;8.00;47.60
58849;DHT22;44619;51.022;6.818;2023-03-02T12:07:14;8.20;47.80
58849;DHT22;44619;51.022;6.818;2023-03-02T12:09:40;8.50;47.90
58849;DHT22;44619;51.022;6.818;2023-03-02T12:14:51;9.00;48.40
58849;DHT22;44619;51.022;6.818;2023-03-02T12:22:31;9.70;48.90
58849;DHT22;44619;51.022;6.818;2023-03-02T12:24:58;9.90;49.00
58849;DHT22;44619;51.022;6.818;2023-03-02T12:27:25;10.10;49.30
58849;DHT22;44619;51.022;6.818;2023-03-02T12:33:00;10.60;49.50
58849;DHT22;44619;51.022;6.818;2023-03-02T12:35:27;10.90;49.50
58849;DHT22;44619;51.022;6.818;2023-03-02T12:37:57;11.00;49.80
58849;DHT22;44619;51.022;6.818;2023-03-02T12:40:39;11.20;49.80
58849;DHT22;44619;51.022;6.818;2023-03-02T12:43:26;11.40;49.70
58849;DHT22;44619;51.022;6.818;2023-03-02T12:48:26;12.10;49.30
58849;DHT22;44619;51.022;6.818;2023-03-02T12:50:59;12.40;49.10
58849;DHT22;44619;51.022;6.818;2023-03-02T12:53:26;12.70;48.80
58849;DHT22;44619;51.022;6.818;2023-03-02T12:55:51;12.80;48.60
58849;DHT22;44619;51.022;6.818;2023-03-02T12:58:18;13.00;48.70
58849;DHT22;44619;51.022;6.818;2023-03-02T13:00:52;13.30;48.50
58849;DHT22;44619;51.022;6.818;2023-03-02T13:03:17;13.40;48.30
58849;DHT22;44619;51.022;6.818;2023-03-02T13:05:43;13.70;48.10
58849;DHT22;44619;51.022;6.818;2023-03-02T13:08:12;13.90;47.90
58849;DHT22;44619;51.022;6.818;2023-03-02T13:11:01;14.10;47.60
58849;DHT22;44619;51.022;6.818;2023-03-02T13:15:55;14.60;47.30
58849;DHT22;44619;51.022;6.818;2023-03-02T13:18:23;14.80;47.30
58849;DHT22;44619;51.022;6.818;2023-03-02T13:20:49;15.00;47.00
58849;DHT22;44619;51.022;6.818;2023-03-02T13:23:16;15.30;47.10
58849;DHT22;44619;51.022;6.818;2023-03-02T13:25:46;15.50;46.80
58849;DHT22;44619;51.022;6.818;2023-03-02T13:30:58;15.90;46.50
58849;DHT22;44619;51.022;6.818;2023-03-02T13:33:24;16.20;46.60
58849;DHT22;44619;51.022;6.818;2023-03-02T13:35:50;16.30;46.60
58849;DHT22;44619;51.022;6.818;2023-03-02T13:38:17;16.60;46.60
58849;DHT22;44619;51.022;6.818;2023-03-02T13:40:52;16.70;46.50
58849;DHT22;44619;51.022;6.818;2023-03-02T13:45:54;17.10;46.20
58849;DHT22;44619;51.022;6.818;2023-03-02T13:48:20;17.30;46.00
58849;DHT22;44619;51.022;6.818;2023-03-02T13:51:18;17.50;45.70
58849;DHT22;44619;51.022;6.818;2023-03-02T13:53:37;17.60;45.60
58849;DHT22;44619;51.022;6.818;2023-03-02T13:56:04;17.90;45.40
58849;DHT22;44619;51.022;6.818;2023-03-02T13:58:30;18.10;45.40
58849;DHT22;44619;51.022;6.818;2023-03-02T14:00:59;18.30;45.30
58849;DHT22;44619;51.022;6.818;2023-03-02T14:03:27;18.50;45.20
58849;DHT22;44619;51.022;6.818;2023-03-02T14:05:53;18.70;45.20
58849;DHT22;44619;51.022;6.818;2023-03-02T14:08:19;18.80;44.70
58849;DHT22;44619;51.022;6.818;2023-03-02T14:10:45;19.00;45.10
58849;DHT22;44619;51.022;6.818;2023-03-02T14:13:16;19.20;44.90
58849;DHT22;44619;51.022;6.818;2023-03-02T14:15:58;19.40;45.00
58849;DHT22;44619;51.022;6.818;2023-03-02T14:18:26;19.60;44.70
58849;DHT22;44619;51.022;6.818;2023-03-02T14:20:52;19.80;44.50
58849;DHT22;44619;51.022;6.818;2023-03-02T14:23:18;19.90;44.30
58849;DHT22;44619;51.022;6.818;2023-03-02T14:25:44;20.10;44.40
58849;DHT22;44619;51.022;6.818;2023-03-02T14:28:10;20.30;44.00
58849;DHT22;44619;51.022;6.818;2023-03-02T14:30:37;20.40;43.80
58849;DHT22;44619;51.022;6.818;2023-03-02T14:33:04;20.50;43.40
58849;DHT22;44619;51.022;6.818;2023-03-02T14:35:34;20.70;43.70
58849;DHT22;44619;51.022;6.818;2023-03-02T14:38:00;20.80;43.50
58849;DHT22;44619;51.022;6.818;2023-03-02T14:40:26;20.90;43.40
58849;DHT22;44619;51.022;6.818;2023-03-02T14:42:52;21.00;43.20
58849;DHT22;44619;51.022;6.818;2023-03-02T14:45:19;21.20;43.20
58849;DHT22;44619;51.022;6.818;2023-03-02T14:47:45;21.30;42.70
58849;DHT22;44619;51.022;6.818;2023-03-02T14:50:11;21.50;43.10
58849;DHT22;44619;51.022;6.818;2023-03-02T14:52:41;21.50;43.20
58849;DHT22;44619;51.022;6.818;2023-03-02T14:55:12;21.70;43.10
58849;DHT22;44619;51.022;6.818;2023-03-02T14:57:45;21.80;42.80
58849;DHT22;44619;51.022;6.818;2023-03-02T15:00:11;21.90;42.60
58849;DHT22;44619;51.022;6.818;2023-03-02T15:02:37;21.90;42.40
58849;DHT22;44619;51.022;6.818;2023-03-02T15:05:03;22.00;42.20
58849;DHT22;44619;51.022;6.818;2023-03-02T15:07:29;22.00;42.00
58849;DHT22;44619;51.022;6.818;2023-03-02T15:09:55;22.00;41.90
58849;DHT22;44619;51.022;6.818;2023-03-02T15:12:20;22.00;41.90
58849;DHT22;44619;51.022;6.818;2023-03-02T15:14:46;22.10;41.80
58849;DHT22;44619;51.022;6.818;2023-03-02T15:17:11;22.10;41.40
58849;DHT22;44619;51.022;6.818;2023-03-02T15:19:37;22.10;41.40
58849;DHT22;44619;51.022;6.818;2023-03-02T15:22:03;22.10;41.40
58849;DHT22;44619;51.022;6.818;2023-03-02T15:24:28;22.20;41.30
58849;DHT22;44619;51.022;6.818;2023-03-02T15:26:54;22.20;41.30
58849;DHT22;44619;51.022;6.818;2023-03-02T15:29:20;22.20;41.40
58849;DHT22;44619;51.022;6.818;2023-03-02T15:31:45;22.20;41.40
58849;DHT22;44619;51.022;6.818;2023-03-02T15:34:11;22.30;41.40
58849;DHT22;44619;51.022;6.818;2023-03-02T15:36:37;22.30;41.10
58849;DHT22;44619;51.022;6.818;2023-03-02T15:39:02;22.30;41.10
58849;DHT22;44619;51.022;6.818;2023-03-02T15:41:28;22.30;41.40
58849;DHT22;44619;51.022;6.818;2023-03-02T15:43:54;22.30;41.20
58849;DHT22;44619;51.022;6.818;2023-03-02T15:46:20;22.30;41.20
58849;DHT22;44619;51.022;6.818;2023-03-02T15:48:45;22.40;40.80
58849;DHT22;44619;51.022;6.818;2023-03-02T15:51:11;22.40;40.70
58849;DHT22;44619;51.022;6.818;2023-03-02T15:53:37;22.40;40.90
58849;DHT22;44619;51.022;6.818;2023-03-02T15:56:06;22.30;40.80
58849;DHT22;44619;51.022;6.818;2023-03-02T15:58:32;22.30;40.60
58849;DHT22;44619;51.022;6.818;2023-03-02T16:00:58;22.30;40.30
58849;DHT22;44619;51.022;6.818;2023-03-02T16:03:23;22.30;40.10
58849;DHT22;44619;51.022;6.818;2023-03-02T16:05:49;22.20;40.00
58849;DHT22;44619;51.022;6.818;2023-03-02T16:08:15;22.10;39.60
58849;DHT22;44619;51.022;6.818;2023-03-02T16:10:40;22.00;39.70
58849;DHT22;44619;51.022;6.818;2023-03-02T16:13:09;21.90;39.40
58849;DHT22;44619;51.022;6.818;2023-03-02T16:15:38;21.80;39.70
58849;DHT22;44619;51.022;6.818;2023-03-02T16:18:07;21.60;39.10
58849;DHT22;44619;51.022;6.818;2023-03-02T16:20:36;21.50;39.00
58849;DHT22;44619;51.022;6.818;2023-03-02T16:23:03;21.40;38.90
58849;DHT22;44619;51.022;6.818;2023-03-02T16:25:34;21.30;39.20
58849;DHT22;44619;51.022;6.818;2023-03-02T16:28:04;21.10;39.50
58849;DHT22;44619;51.022;6.818;2023-03-02T16:30:30;20.90;38.50
58849;DHT22;44619;51.022;6.818;2023-03-02T16:32:56;20.80;38.80
58849;DHT22;44619;51.022;6.818;2023-03-02T16:35:21;20.60;38.50
58849;DHT22;44619;51.022;6.818;2023-03-02T16:37:47;20.50;38.70
58849;DHT22;44619;51.022;6.818;2023-03-02T16:40:13;20.30;38.40
58849;DHT22;44619;51.022;6.818;2023-03-02T16:42:39;20.10;38.40
58849;DHT22;44619;51.022;6.818;2023-03-02T16:45:08;20.00;38.10
58849;DHT22;44619;51.022;6.818;2023-03-02T16:47:34;19.80;37.50
58849;DHT22;44619;51.022;6.818;2023-03-02T16:49:59;19.60;37.50
58849;DHT22;44619;51.022;6.818;2023-03-02T16:52:25;19.50;38.40